Time;durP1;ratioP1;P1;durP2;ratioP2;P2;SDS_P1;SDS_P2;PMS_P1;PMS_P2;Temp;Humidity;BMP_temperature;BMP_pressure;BME280_temperature;BME280_humidity;BME280_pressure;Samples;Min_cycle;Max_cycle;Signal;HPM_P1;HPM_P2
2022/08/27 00:02:01;;;;;;;8.70;2.88;;;15.60;99.90;;;;;;5129017;27;20039;-63
2022/08/27 00:04:29;;;;;;;6.18;2.67;;;15.50;99.90;;;;;;5122205;27;20042;-63
2022/08/27 00:06:56;;;;;;;7.47;3.30;;;15.50;99.90;;;;;;5138022;27;20262;-63
2022/08/27 00:09:23;;;;;;;5.93;3.05;;;15.40;99.90;;;;;;5157920;27;20446;-63
2022/08/27 00:11:50;;;;;;;9.52;4.15;;;15.30;99.90;;;;;;5157403;27;20126;-63
2022/08/27 00:14:17;;;;;;;7.90;3.67;;;15.30;99.90;;;;;;5138107;27;20090;-64
2022/08/27 00:16:43;;;;;;;5.80;3.63;;;15.20;99.90;;;;;;5138520;27;20457;-63
2022/08/27 00:19:11;;;;;;;12.55;4.30;;;15.20;99.90;;;;;;5157141;27;20481;-63
2022/08/27 00:21:40;;;;;;;8.18;4.00;;;15.10;99.90;;;;;;5156859;27;20087;-62
2022/08/27 00:24:07;;;;;;;6.93;3.70;;;15.10;99.90;;;;;;5138517;27;20046;-63
2022/08/27 00:26:33;;;;;;;8.25;4.22;;;15.00;99.90;;;;;;5138778;27;20059;-63
2022/08/27 00:29:00;;;;;;;11.57;4.05;;;15.00;99.90;;;;;;5138593;27;20050;-62
2022/08/27 00:31:27;;;;;;;7.88;3.72;;;15.00;99.90;;;;;;5124283;27;20074;-64
2022/08/27 00:33:54;;;;;;;7.43;3.10;;;15.00;99.90;;;;;;5138488;27;20438;-64
2022/08/27 00:36:21;;;;;;;7.30;3.08;;;14.90;99.90;;;;;;5137479;27;20110;-63
2022/08/27 00:38:50;;;;;;;6.45;3.28;;;14.90;99.90;;;;;;5156528;27;20055;-63
2022/08/27 00:41:19;;;;;;;5.80;2.83;;;14.80;99.90;;;;;;5137821;27;20481;-64
2022/08/27 00:43:48;;;;;;;6.78;2.85;;;14.80;99.90;;;;;;5156842;27;20068;-63
2022/08/27 00:46:21;;;;;;;7.07;3.85;;;14.80;99.90;;;;;;5133089;27;20503;-64
2022/08/27 00:48:48;;;;;;;6.32;3.45;;;14.70;99.90;;;;;;5135695;27;20043;-63
2022/08/27 00:51:15;;;;;;;10.40;3.80;;;14.70;99.90;;;;;;5117704;27;20559;-64
2022/08/27 00:53:43;;;;;;;9.40;3.58;;;14.70;99.90;;;;;;5118347;27;20043;-64
2022/08/27 00:56:14;;;;;;;6.30;3.92;;;14.70;99.90;;;;;;5117344;27;20410;-63
2022/08/27 00:58:44;;;;;;;15.90;4.20;;;14.70;99.90;;;;;;5117787;27;20047;-64
2022/08/27 01:01:14;;;;;;;6.57;3.55;;;14.60;99.90;;;;;;5135821;27;20111;-63
2022/08/27 01:03:43;;;;;;;;;;;14.60;99.90;;;;;;5150334;27;20078;-64
2022/08/27 01:06:12;;;;;;;4.82;3.28;;;14.60;99.90;;;;;;5156497;27;19919;-64
2022/08/27 01:08:43;;;;;;;6.78;3.45;;;14.50;99.90;;;;;;5156138;27;20057;-64
2022/08/27 01:11:12;;;;;;;6.03;3.40;;;14.60;99.90;;;;;;5155909;27;20047;-63
2022/08/27 01:13:39;;;;;;;8.82;3.70;;;14.70;99.90;;;;;;5144405;27;20051;-64
2022/08/27 01:16:08;;;;;;;7.30;3.63;;;14.70;99.90;;;;;;5135326;27;20055;-64
2022/08/27 01:18:36;;;;;;;8.90;4.25;;;14.70;99.90;;;;;;5134898;27;20054;-63
2022/08/27 01:21:10;;;;;;;6.43;3.45;;;14.80;99.90;;;;;;5135429;27;20491;-63
2022/08/27 01:23:44;;;;;;;7.70;3.22;;;14.80;99.90;;;;;;5116420;27;20043;-63
2022/08/27 01:26:14;;;;;;;5.82;3.35;;;14.90;99.90;;;;;;5135253;27;20096;-63
2022/08/27 01:28:41;;;;;;;;;;;15.00;99.90;;;;;;5130650;27;20460;-64
2022/08/27 01:31:09;;;;;;;7.18;3.03;;;15.00;99.90;;;;;;5155575;27;19918;-63
2022/08/27 01:33:37;;;;;;;5.88;3.33;;;15.00;99.90;;;;;;5155542;27;20054;-64
2022/08/27 01:36:05;;;;;;;5.63;3.13;;;15.00;99.90;;;;;;5137099;27;20496;-62
2022/08/27 01:38:33;;;;;;;8.60;3.30;;;15.10;99.90;;;;;;5137124;27;20050;-63
2022/08/27 01:41:01;;;;;;;5.03;3.20;;;15.20;99.90;;;;;;5137682;27;20103;-63
2022/08/27 01:43:31;;;;;;;8.20;3.50;;;15.20;99.90;;;;;;5155353;27;20047;-64
2022/08/27 01:45:58;;;;;;;13.05;3.85;;;15.20;99.90;;;;;;5154985;27;20391;-64
2022/08/27 01:48:24;;;;;;;10.68;3.28;;;15.20;99.90;;;;;;5140301;27;20062;-63
2022/08/27 01:50:51;;;;;;;5.90;3.25;;;15.20;99.90;;;;;;5116551;27;20095;-64
2022/08/27 01:53:22;;;;;;;5.25;3.08;;;15.20;99.90;;;;;;5117073;27;20047;-64
2022/08/27 01:55:50;;;;;;;7.65;3.63;;;15.10;99.90;;;;;;5116410;27;20074;-64
2022/08/27 01:58:18;;;;;;;5.93;2.67;;;15.10;99.90;;;;;;5116314;27;20051;-63
2022/08/27 02:00:49;;;;;;;4.70;2.80;;;15.00;99.90;;;;;;5134093;27;20074;-63
2022/08/27 02:03:17;;;;;;;4.18;2.72;;;15.00;99.90;;;;;;5116033;27;20096;-62
2022/08/27 02:05:44;;;;;;;5.68;3.25;;;15.00;99.90;;;;;;5115934;27;20058;-63
2022/08/27 02:08:11;;;;;;;7.07;2.88;;;15.00;99.90;;;;;;5147984;27;20070;-63
2022/08/27 02:10:39;;;;;;;8.10;3.03;;;14.90;99.90;;;;;;5154931;27;20051;-63
2022/08/27 02:13:07;;;;;;;4.88;3.35;;;14.90;99.90;;;;;;5154348;27;20523;-63
2022/08/27 02:15:35;;;;;;;6.22;3.30;;;14.80;99.90;;;;;;5136998;27;20051;-63
2022/08/27 02:18:05;;;;;;;6.32;2.72;;;14.80;99.90;;;;;;5154655;27;20072;-63
2022/08/27 02:20:32;;;;;;;6.63;3.33;;;14.70;99.90;;;;;;5136384;27;20055;-64
2022/08/27 02:22:59;;;;;;;9.15;3.30;;;14.70;99.90;;;;;;5142176;27;20082;-64
2022/08/27 02:25:28;;;;;;;6.82;3.30;;;14.60;99.90;;;;;;5134373;27;20092;-64
2022/08/27 02:27:58;;;;;;;7.65;3.30;;;14.60;99.90;;;;;;5115386;27;20057;-63
2022/08/27 02:30:26;;;;;;;7.05;3.30;;;14.50;99.90;;;;;;5134234;27;20406;-64
2022/08/27 02:32:53;;;;;;;6.88;3.35;;;14.50;99.90;;;;;;5133982;27;20129;-63
2022/08/27 02:35:24;;;;;;;7.07;3.35;;;14.50;99.90;;;;;;5133696;27;20096;-62
2022/08/27 02:37:52;;;;;;;4.78;3.10;;;14.50;99.90;;;;;;5115673;27;20452;-63
2022/08/27 02:40:21;;;;;;;7.22;2.75;;;14.50;99.90;;;;;;5115755;27;20058;-62
2022/08/27 02:42:49;;;;;;;5.45;2.80;;;14.50;99.90;;;;;;5115017;28;20043;-63
2022/08/27 02:45:17;;;;;;;6.65;2.70;;;14.50;99.90;;;;;;5115659;28;20047;-63
2022/08/27 02:47:44;;;;;;;5.07;2.85;;;14.50;99.90;;;;;;5133695;27;20139;-63
2022/08/27 02:50:13;;;;;;;7.78;2.70;;;14.60;99.90;;;;;;5115173;27;20488;-65
2022/08/27 02:52:44;;;;;;;6.68;3.05;;;14.60;99.90;;;;;;5115550;28;20055;-63
2022/08/27 02:55:11;;;;;;;6.75;3.00;;;14.60;99.90;;;;;;5115178;28;20062;-63
2022/08/27 02:57:38;;;;;;;4.32;2.60;;;14.60;99.90;;;;;;5122672;27;20057;-62
2022/08/27 03:00:08;;;;;;;7.32;2.95;;;14.60;99.90;;;;;;5154879;27;20490;-62
2022/08/27 03:02:36;;;;;;;5.97;2.60;;;14.70;99.90;;;;;;5158383;27;20095;-62
2022/08/27 03:05:03;;;;;;;4.22;2.38;;;14.70;99.90;;;;;;5158877;27;20547;-63
2022/08/27 03:07:30;;;;;;;4.53;2.63;;;14.60;99.90;;;;;;5140086;27;20486;-62
2022/08/27 03:09:58;;;;;;;6.57;2.85;;;14.70;99.90;;;;;;5139561;27;20058;-64
2022/08/27 03:12:25;;;;;;;4.95;3.17;;;14.70;99.90;;;;;;5131197;27;20047;-63
2022/08/27 03:14:52;;;;;;;5.15;2.80;;;14.60;99.90;;;;;;5137752;27;20057;-64
2022/08/27 03:20:05;;;;;;;7.43;2.95;;;14.60;99.90;;;;;;5138199;27;20043;-64
2022/08/27 03:22:32;;;;;;;4.93;2.75;;;14.60;99.90;;;;;;5136467;27;20058;-63
2022/08/27 03:25:01;;;;;;;5.65;2.70;;;14.60;99.90;;;;;;5137373;27;20116;-63
2022/08/27 03:27:28;;;;;;;6.55;2.80;;;14.50;99.90;;;;;;5136738;27;20056;-63
2022/08/27 03:29:55;;;;;;;5.38;2.60;;;14.50;99.90;;;;;;5136571;27;20092;-63
2022/08/27 03:32:23;;;;;;;6.65;2.63;;;14.50;99.90;;;;;;5137144;27;20054;-63
2022/08/27 03:34:49;;;;;;;5.95;2.90;;;14.50;99.90;;;;;;5132926;27;20051;-63
2022/08/27 03:37:17;;;;;;;5.97;3.00;;;14.40;99.90;;;;;;5116200;28;20491;-63
2022/08/27 03:39:44;;;;;;;4.18;2.58;;;14.40;99.90;;;;;;5115630;28;20520;-62
2022/08/27 03:42:12;;;;;;;7.40;3.17;;;14.30;99.90;;;;;;5115541;28;20048;-63
2022/08/27 03:44:38;;;;;;;4.65;2.55;;;14.30;99.90;;;;;;5114649;28;20051;-62
2022/08/27 03:47:05;;;;;;;5.53;2.78;;;14.30;99.90;;;;;;5116724;28;20398;-62
2022/08/27 03:49:32;;;;;;;8.45;2.88;;;14.20;99.90;;;;;;5119511;27;20408;-63
2022/08/27 03:51:59;;;;;;;5.95;2.40;;;14.20;99.90;;;;;;5136416;27;20499;-63
2022/08/27 03:54:26;;;;;;;4.32;2.60;;;14.20;99.90;;;;;;5137421;27;20092;-63
2022/08/27 03:56:53;;;;;;;5.00;2.78;;;14.20;99.90;;;;;;5136676;27;20047;-62
2022/08/27 03:59:21;;;;;;;7.00;3.05;;;14.10;99.90;;;;;;5135247;27;20195;-63
2022/08/27 04:01:48;;;;;;;6.07;2.88;;;14.10;99.90;;;;;;5136540;27;20452;-63
2022/08/27 04:04:15;;;;;;;6.07;2.75;;;14.00;99.90;;;;;;5130922;27;20463;-62
2022/08/27 04:06:42;;;;;;;5.78;3.05;;;14.00;99.90;;;;;;5114510;28;20093;-64
2022/08/27 04:09:08;;;;;;;3.75;2.50;;;14.00;99.90;;;;;;5116330;28;20047;-63
2022/08/27 04:11:35;;;;;;;6.00;2.78;;;13.90;99.90;;;;;;5114818;28;20096;-63
2022/08/27 04:14:04;;;;;;;5.25;3.03;;;13.90;99.90;;;;;;5131702;27;20083;-63
2022/08/27 04:16:33;;;;;;;10.85;3.03;;;13.90;99.90;;;;;;5135715;27;20448;-64
2022/08/27 04:19:00;;;;;;;5.00;2.95;;;13.90;99.90;;;;;;5135696;27;20123;-64
2022/08/27 04:21:27;;;;;;;4.25;2.90;;;13.90;99.90;;;;;;5136028;27;20206;-64
2022/08/27 04:23:55;;;;;;;3.97;2.65;;;13.80;99.90;;;;;;5135209;27;20356;-63
2022/08/27 04:26:22;;;;;;;7.57;3.05;;;13.80;99.90;;;;;;5116663;27;20058;-63
2022/08/27 04:28:49;;;;;;;6.07;3.05;;;13.80;99.90;;;;;;5114911;28;20082;-63
2022/08/27 04:31:17;;;;;;;6.03;2.90;;;13.80;99.90;;;;;;5114397;28;20134;-63
2022/08/27 04:33:45;;;;;;;7.93;3.10;;;13.70;99.90;;;;;;5129569;27;20043;-63
2022/08/27 04:36:12;;;;;;;6.75;3.15;;;13.70;99.90;;;;;;5136113;27;20100;-63
2022/08/27 04:38:39;;;;;;;6.18;3.00;;;13.80;99.90;;;;;;5130040;27;20127;-63
2022/08/27 04:41:21;;;;;;;5.80;3.13;;;13.70;99.90;;;;;;5114134;28;20074;-64
2022/08/27 04:43:50;;;;;;;5.45;3.03;;;13.70;99.90;;;;;;5116266;28;20073;-63
2022/08/27 04:46:22;;;;;;;7.65;3.20;;;13.70;99.90;;;;;;5134506;27;20058;-63
2022/08/27 04:48:51;;;;;;;7.68;2.95;;;13.70;99.90;;;;;;5134412;27;20518;-63
2022/08/27 04:51:19;;;;;;;10.77;3.03;;;13.80;99.90;;;;;;5134886;27;20055;-63
2022/08/27 04:53:46;;;;;;;6.30;2.72;;;13.90;99.90;;;;;;5134811;27;20134;-63
2022/08/27 04:56:14;;;;;;;7.10;3.00;;;14.00;99.90;;;;;;5135190;27;20051;-64
2022/08/27 04:58:41;;;;;;;7.07;2.65;;;14.10;99.90;;;;;;5133910;27;20043;-63
2022/08/27 05:01:09;;;;;;;5.22;3.28;;;14.20;99.90;;;;;;5134912;27;20490;-63
2022/08/27 05:03:36;;;;;;;7.38;2.88;;;14.30;99.90;;;;;;5117629;27;20051;-64
2022/08/27 05:06:05;;;;;;;6.43;3.22;;;14.40;99.90;;;;;;5113739;28;20049;-64
2022/08/27 05:08:33;;;;;;;4.63;2.95;;;14.50;99.90;;;;;;5114992;28;20055;-64
2022/08/27 05:11:01;;;;;;;9.68;3.20;;;14.60;99.90;;;;;;5114071;28;20054;-63
2022/08/27 05:13:29;;;;;;;6.07;2.92;;;14.70;99.90;;;;;;5113635;28;20108;-64
2022/08/27 05:16:00;;;;;;;8.07;2.85;;;14.80;99.90;;;;;;5114436;28;20052;-64
2022/08/27 05:18:27;;;;;;;10.10;3.05;;;14.90;99.90;;;;;;5129831;27;20063;-64
2022/08/27 05:20:55;;;;;;;6.15;2.83;;;14.90;99.90;;;;;;5135327;27;20563;-64
2022/08/27 05:23:24;;;;;;;6.85;3.20;;;15.00;99.90;;;;;;5133194;27;20050;-64
2022/08/27 05:25:52;;;;;;;6.80;3.08;;;15.10;99.90;;;;;;5135502;27;20467;-63
2022/08/27 05:28:21;;;;;;;6.68;2.92;;;15.20;99.90;;;;;;5135098;27;20511;-63
2022/08/27 05:30:50;;;;;;;6.45;2.80;;;15.30;99.90;;;;;;5134648;27;20061;-64
2022/08/27 05:33:19;;;;;;;7.50;3.10;;;15.40;99.90;;;;;;5118807;27;20156;-64
2022/08/27 05:35:48;;;;;;;6.10;2.90;;;15.50;99.90;;;;;;5113129;28;20051;-64
2022/08/27 05:38:16;;;;;;;9.77;2.35;;;15.50;99.90;;;;;;5113879;28;20088;-63
2022/08/27 05:40:46;;;;;;;3.97;2.50;;;15.60;99.90;;;;;;5114416;28;20055;-64
2022/08/27 05:43:14;;;;;;;7.45;2.70;;;15.70;99.90;;;;;;5113498;28;20051;-63
2022/08/27 05:45:42;;;;;;;6.15;2.65;;;15.80;99.90;;;;;;5113822;28;20104;-63
2022/08/27 05:48:10;;;;;;;4.30;2.20;;;15.90;99.90;;;;;;5130366;27;20055;-63
2022/08/27 05:50:38;;;;;;;16.95;2.67;;;16.00;99.90;;;;;;5133269;27;20130;-63
2022/08/27 05:53:05;;;;;;;4.45;2.25;;;16.10;99.90;;;;;;5133333;27;20047;-63
2022/08/27 05:55:37;;;;;;;3.67;1.80;;;16.20;99.90;;;;;;5132695;27;20087;-63
2022/08/27 05:58:06;;;;;;;6.90;2.15;;;16.20;99.90;;;;;;5113882;28;20070;-63
2022/08/27 06:03:17;;;;;;;4.50;2.00;;;16.30;99.90;;;;;;5121902;27;22673;-63
2022/08/27 06:05:43;;;;;;;8.65;2.15;;;16.60;99.90;;;;;;5128107;27;20054;-63
2022/08/27 06:08:10;;;;;;;4.53;1.88;;;17.00;99.90;;;;;;5125756;27;20072;-63
2022/08/27 06:10:41;;;;;;;5.72;2.35;;;17.20;99.90;;;;;;5121094;27;20064;-63
2022/08/27 06:13:10;;;;;;;4.45;2.00;;;17.30;99.90;;;;;;5136695;27;20051;-62
2022/08/27 06:15:36;;;;;;;3.25;1.70;;;17.30;99.90;;;;;;5126591;27;20047;-63
2022/08/27 06:18:04;;;;;;;5.53;2.28;;;17.40;99.90;;;;;;5148686;27;20092;-62
2022/08/27 06:20:30;;;;;;;12.25;2.75;;;17.40;99.90;;;;;;5143587;27;20513;-64
2022/08/27 06:22:57;;;;;;;5.18;2.60;;;17.50;99.90;;;;;;5144619;27;20530;-63
2022/08/27 06:25:24;;;;;;;5.15;2.08;;;17.60;99.90;;;;;;5127095;27;20058;-64
2022/08/27 06:27:51;;;;;;;8.10;2.47;;;17.60;99.90;;;;;;5149011;27;20068;-63
2022/08/27 06:30:19;;;;;;;4.63;2.25;;;17.60;99.90;;;;;;5126926;27;20981;-63
2022/08/27 06:32:46;;;;;;;8.30;2.72;;;17.70;99.90;;;;;;5145969;27;20509;-63
2022/08/27 06:35:13;;;;;;;4.90;1.95;;;17.70;99.90;;;;;;5140944;27;20141;-64
2022/08/27 06:37:40;;;;;;;5.82;2.55;;;17.90;99.90;;;;;;5144499;27;20062;-64
2022/08/27 06:40:08;;;;;;;7.22;2.17;;;18.00;99.90;;;;;;5144021;27;20106;-64
2022/08/27 06:42:35;;;;;;;11.38;2.58;;;18.30;99.90;;;;;;5144780;27;20047;-62
2022/08/27 06:45:02;;;;;;;6.32;1.85;;;18.50;99.90;;;;;;5126173;27;20107;-64
2022/08/27 06:47:33;;;;;;;4.70;1.85;;;18.60;99.90;;;;;;5144256;27;20086;-64
2022/08/27 06:50:00;;;;;;;6.07;1.98;;;18.80;99.90;;;;;;5114795;27;20078;-64
2022/08/27 06:52:26;;;;;;;5.97;1.90;;;18.90;99.90;;;;;;5126271;27;20047;-64
2022/08/27 06:54:53;;;;;;;7.50;1.83;;;19.10;99.90;;;;;;5127096;27;20087;-63
2022/08/27 06:57:23;;;;;;;4.57;1.70;;;19.30;99.90;;;;;;5144786;27;20405;-63
2022/08/27 06:59:49;;;;;;;5.90;2.35;;;19.60;99.90;;;;;;5146815;27;20054;-62
2022/08/27 07:02:16;;;;;;;11.65;2.45;;;19.70;99.90;;;;;;5119257;27;20100;-65
2022/08/27 07:04:44;;;;;;;4.70;2.20;;;20.00;99.90;;;;;;5141279;27;20046;-62
2022/08/27 07:07:13;;;;;;;9.27;2.47;;;20.10;99.90;;;;;;5119969;27;20059;-63
2022/08/27 07:09:40;;;;;;;6.90;2.20;;;20.10;99.90;;;;;;5147365;27;20083;-63
2022/08/27 07:12:07;;;;;;;7.95;2.30;;;20.20;99.90;;;;;;5128009;27;20050;-63
2022/08/27 07:14:34;;;;;;;3.53;1.70;;;20.30;99.90;;;;;;5146497;27;20039;-63
2022/08/27 07:17:01;;;;;;;6.45;2.03;;;20.50;99.90;;;;;;5142085;27;20043;-64
2022/08/27 07:19:29;;;;;;;5.28;2.30;;;20.50;99.90;;;;;;5135945;27;20051;-64
2022/08/27 07:21:57;;;;;;;5.10;2.00;;;20.90;99.90;;;;;;5148069;27;20123;-64
2022/08/27 07:24:24;;;;;;;6.63;1.95;;;21.40;99.90;;;;;;5143897;27;20043;-63
2022/08/27 07:26:51;;;;;;;8.45;1.90;;;22.40;99.90;;;;;;5144078;27;20047;-65
2022/08/27 07:29:18;;;;;;;4.53;1.80;;;22.60;99.90;;;;;;5123130;27;20485;-62
2022/08/27 07:31:45;;;;;;;3.25;1.40;;;22.50;99.90;;;;;;5127996;27;20122;-63
2022/08/27 07:34:12;;;;;;;8.25;1.77;;;22.30;99.90;;;;;;5118656;27;20080;-63
2022/08/27 07:36:39;;;;;;;6.50;1.95;;;22.10;99.90;;;;;;5127431;27;20434;-64
2022/08/27 07:39:08;;;;;;;6.53;1.60;;;21.90;99.90;;;;;;5147449;27;20051;-63
2022/08/27 07:44:23;;;;;;;5.85;1.58;;;21.80;99.90;;;;;;5146230;27;20039;-64
2022/08/27 07:44:26;;;;;;;5.95;1.95;;;21.80;99.90;;;;;;5125723;27;20382;-65
2022/08/27 07:46:54;;;;;;;4.00;1.50;;;21.80;99.90;;;;;;5147858;27;20070;-63
2022/08/27 07:49:22;;;;;;;5.47;1.70;;;21.80;99.90;;;;;;5127278;27;20360;-64
2022/08/27 07:51:50;;;;;;;9.30;2.97;;;21.80;99.90;;;;;;5147977;27;20049;-63
2022/08/27 07:54:18;;;;;;;5.85;1.40;;;21.90;99.90;;;;;;5129073;27;20046;-63
2022/08/27 07:56:45;;;;;;;5.05;1.42;;;21.70;99.90;;;;;;5147506;27;20074;-64
2022/08/27 07:59:12;;;;;;;5.85;1.63;;;21.60;99.90;;;;;;5149641;27;20497;-64
2022/08/27 08:01:41;;;;;;;8.38;1.92;;;21.50;99.90;;;;;;5130140;27;20145;-63
2022/08/27 08:04:08;;;;;;;6.68;1.88;;;21.50;99.90;;;;;;5151441;27;20134;-65
2022/08/27 08:06:37;;;;;;;7.85;1.60;;;21.40;99.90;;;;;;5129439;27;20420;-65
2022/08/27 08:09:04;;;;;;;5.20;1.20;;;21.40;99.90;;;;;;5125335;27;22309;-64
2022/08/27 08:11:33;;;;;;;9.15;1.77;;;21.40;99.90;;;;;;5151058;27;20043;-64
2022/08/27 08:14:01;;;;;;;5.65;1.58;;;21.60;99.90;;;;;;5147539;27;20486;-63
2022/08/27 08:16:28;;;;;;;5.95;1.73;;;22.00;99.90;;;;;;5144780;27;20047;-64
2022/08/27 08:18:55;;;;;;;14.05;2.10;;;22.40;99.90;;;;;;5126139;27;20047;-64
2022/08/27 08:21:22;;;;;;;8.55;2.10;;;22.70;99.90;;;;;;5151743;27;20047;-63
2022/08/27 08:23:49;;;;;;;5.60;1.52;;;22.90;99.90;;;;;;5145562;27;20115;-63
2022/08/27 08:26:16;;;;;;;4.28;1.55;;;22.90;99.90;;;;;;5115832;27;20078;-63
2022/08/27 08:28:46;;;;;;;7.20;1.90;;;23.00;99.90;;;;;;5131862;27;20097;-65
2022/08/27 08:31:13;;;;;;;4.53;1.75;;;23.00;99.90;;;;;;5153203;27;20087;-64
2022/08/27 08:33:40;;;;;;;8.40;1.77;;;23.20;99.90;;;;;;5147307;27;20102;-62
2022/08/27 08:36:10;;;;;;;3.97;2.00;;;23.10;99.90;;;;;;5133309;27;20387;-63
2022/08/27 08:38:37;;;;;;;6.78;1.77;;;23.10;99.90;;;;;;5144432;27;20502;-64
2022/08/27 08:41:06;;;;;;;10.35;1.98;;;23.10;99.90;;;;;;5147953;27;20440;-64
2022/08/27 08:43:37;;;;;;;5.15;1.48;;;23.00;99.90;;;;;;5148041;27;20043;-65
2022/08/27 08:46:25;;;;;;;7.95;1.80;;;23.10;99.70;;;;;;5129993;27;20039;-64
2022/08/27 08:48:55;;;;;;;4.63;1.40;;;23.10;98.60;;;;;;5126922;27;20046;-64
2022/08/27 08:51:26;;;;;;;6.45;1.60;;;23.00;99.40;;;;;;5147733;27;20066;-64
2022/08/27 08:53:57;;;;;;;9.23;1.92;;;23.00;99.30;;;;;;5146561;27;20054;-64
2022/08/27 08:56:30;;;;;;;7.18;1.70;;;22.90;99.30;;;;;;5147468;27;20459;-64
2022/08/27 08:59:03;;;;;;;6.97;2.13;;;22.70;99.20;;;;;;5126317;27;20494;-64
2022/08/27 09:01:31;;;;;;;6.90;1.67;;;22.50;99.30;;;;;;5132583;27;20055;-64
2022/08/27 09:04:02;;;;;;;6.82;1.70;;;22.30;99.30;;;;;;5147590;27;20391;-64
2022/08/27 09:06:38;;;;;;;4.53;1.50;;;22.30;99.30;;;;;;5128753;27;20514;-64
2022/08/27 09:09:20;;;;;;;5.28;1.52;;;22.20;99.20;;;;;;5130520;27;20050;-64
2022/08/27 09:11:55;;;;;;;6.50;1.50;;;22.20;99.10;;;;;;5120219;27;20107;-63
2022/08/27 09:14:30;;;;;;;9.40;1.90;;;22.20;99.00;;;;;;5128600;27;20051;-64
2022/08/27 09:17:01;;;;;;;7.95;1.92;;;22.20;99.60;;;;;;5130392;27;20082;-63
2022/08/27 09:19:28;;;;;;;4.72;1.63;;;22.70;99.40;;;;;;5123802;27;20071;-63
2022/08/27 09:22:01;;;;;;;5.63;1.73;;;23.50;98.80;;;;;;5144715;27;20047;-64
2022/08/27 09:24:40;;;;;;;8.90;2.20;;;23.70;97.50;;;;;;5120977;27;20067;-63
2022/08/27 09:27:11;;;;;;;5.70;1.50;;;23.60;97.40;;;;;;5145634;27;20464;-64
2022/08/27 09:29:46;;;;;;;7.45;1.45;;;23.40;97.40;;;;;;5126769;27;20084;-64
2022/08/27 09:32:14;;;;;;;6.72;1.45;;;23.30;97.70;;;;;;5149679;27;20110;-63
2022/08/27 09:34:42;;;;;;;5.00;1.55;;;23.10;97.50;;;;;;5137764;27;20088;-64
2022/08/27 09:37:14;;;;;;;5.90;1.88;;;23.10;97.60;;;;;;5143345;27;20498;-64
2022/08/27 09:39:48;;;;;;;6.13;1.80;;;23.00;97.70;;;;;;5134629;27;20086;-63
2022/08/27 09:42:31;;;;;;;4.93;1.35;;;22.90;97.70;;;;;;5135597;27;20463;-64
2022/08/27 09:44:58;;;;;;;4.50;1.20;;;22.80;97.10;;;;;;5134190;27;20089;-63
2022/08/27 09:47:26;;;;;;;8.27;1.90;;;22.50;97.70;;;;;;5134766;27;20082;-64
2022/08/27 09:50:07;;;;;;;4.32;1.50;;;22.30;97.50;;;;;;5134983;27;20047;-64
2022/08/27 09:52:37;;;;;;;4.65;1.15;;;22.30;96.70;;;;;;5135338;27;20376;-63
2022/08/27 09:55:05;;;;;;;5.03;1.20;;;22.20;97.40;;;;;;5116435;27;20497;-63
2022/08/27 09:57:35;;;;;;;6.00;1.50;;;22.30;97.60;;;;;;5116149;27;20596;-63
2022/08/27 10:00:02;;;;;;;;;;;22.40;97.60;;;;;;5135218;27;20050;-64
2022/08/27 10:02:30;;;;;;;7.63;1.50;;;22.40;96.60;;;;;;5116481;27;19926;-64
2022/08/27 10:05:02;;;;;;;6.00;1.92;;;22.40;97.40;;;;;;5115705;27;20055;-63
2022/08/27 10:07:41;;;;;;;7.22;1.80;;;22.40;97.00;;;;;;5134810;27;20055;-63
2022/08/27 10:10:13;;;;;;;7.68;1.38;;;22.50;97.40;;;;;;5116218;27;20055;-63
2022/08/27 10:12:49;;;;;;;7.78;1.40;;;22.90;97.40;;;;;;5115534;27;20067;-63
2022/08/27 10:15:17;;;;;;;6.10;1.50;;;23.10;96.90;;;;;;5116074;27;20475;-63
2022/08/27 10:17:55;;;;;;;3.63;1.27;;;23.20;96.70;;;;;;5116140;27;20135;-63
2022/08/27 10:20:28;;;;;;;3.70;1.15;;;23.40;96.00;;;;;;5115673;27;20055;-64
2022/08/27 10:23:05;;;;;;;7.70;1.77;;;23.70;95.90;;;;;;5116136;27;20082;-64
2022/08/27 10:25:39;;;;;;;6.07;1.40;;;23.90;95.20;;;;;;5115373;27;20075;-64
2022/08/27 10:28:16;;;;;;;8.50;2.10;;;23.90;94.80;;;;;;5134394;27;20051;-64
2022/08/27 10:31:10;;;;;;;7.07;1.45;;;24.40;94.80;;;;;;5115894;27;20055;-64
2022/08/27 10:33:48;;;;;;;3.22;0.85;;;25.00;93.70;;;;;;5115825;27;20051;-64
2022/08/27 10:36:25;;;;;;;3.72;1.10;;;25.00;92.50;;;;;;5134211;27;20407;-64
2022/08/27 10:39:00;;;;;;;3.33;1.20;;;24.80;92.50;;;;;;5134234;27;20047;-64
2022/08/27 10:41:35;;;;;;;5.85;1.30;;;24.50;92.30;;;;;;5133747;27;20147;-64
2022/08/27 10:44:31;;;;;;;7.28;1.42;;;24.80;92.90;;;;;;5115437;27;20051;-63
2022/08/27 10:47:16;;;;;;;4.70;1.50;;;26.10;92.20;;;;;;5115328;27;20082;-64
2022/08/27 10:49:52;;;;;;;7.20;2.17;;;26.50;90.10;;;;;;5115592;28;20555;-63
2022/08/27 10:52:25;;;;;;;5.68;1.40;;;26.30;90.90;;;;;;5115191;27;20559;-63
2022/08/27 10:54:56;;;;;;;5.25;1.48;;;26.20;91.40;;;;;;5143873;27;20059;-64
2022/08/27 10:57:42;;;;;;;3.33;1.08;;;26.60;91.20;;;;;;5154127;27;20104;-64
2022/08/27 11:00:13;;;;;;;5.80;1.20;;;27.90;88.00;;;;;;5154600;27;20106;-63
2022/08/27 11:02:44;;;;;;;5.50;1.40;;;28.10;86.40;;;;;;5153416;27;20414;-64
2022/08/27 11:05:17;;;;;;;5.53;1.40;;;28.60;85.60;;;;;;5154506;27;20081;-64
2022/08/27 11:07:47;;;;;;;6.72;1.35;;;29.60;83.00;;;;;;5154129;27;20050;-64
2022/08/27 11:10:20;;;;;;;4.97;1.40;;;29.30;82.20;;;;;;5154100;27;20053;-65
2022/08/27 11:12:51;;;;;;;7.30;1.48;;;28.90;82.20;;;;;;5153165;27;20107;-63
2022/08/27 11:15:22;;;;;;;3.50;1.00;;;28.40;83.10;;;;;;5142912;27;20379;-64
2022/08/27 11:17:56;;;;;;;4.80;1.33;;;28.60;82.70;;;;;;5133916;27;20050;-63
2022/08/27 11:20:28;;;;;;;7.05;1.45;;;28.40;80.80;;;;;;5153049;27;20082;-64
2022/08/27 11:23:00;;;;;;;4.32;1.17;;;28.00;81.90;;;;;;5154573;27;20046;-64
2022/08/27 11:25:49;;;;;;;5.50;1.52;;;27.60;82.00;;;;;;5138933;27;20493;-64
2022/08/27 11:28:18;;;;;;;4.13;1.00;;;27.90;79.90;;;;;;5157365;27;20123;-64
2022/08/27 11:31:09;;;;;;;3.83;1.20;;;28.70;79.40;;;;;;5137550;27;20130;-64
2022/08/27 11:33:45;;;;;;;4.68;1.25;;;29.90;77.00;;;;;;5156739;27;20050;-64
2022/08/27 11:36:48;;;;;;;3.95;1.58;;;30.20;75.40;;;;;;5156270;27;20062;-63
2022/08/27 11:39:34;;;;;;;3.60;1.20;;;29.50;75.60;;;;;;5150243;27;20093;-63
2022/08/27 11:42:09;;;;;;;2.78;1.00;;;28.60;78.10;;;;;;5131031;27;20387;-63
2022/08/27 11:44:42;;;;;;;3.63;1.30;;;28.00;79.30;;;;;;5154278;27;20157;-65
2022/08/27 11:47:12;;;;;;;6.00;1.38;;;27.80;80.20;;;;;;5149478;27;20587;-64
2022/08/27 11:49:45;;;;;;;3.67;1.13;;;28.10;80.20;;;;;;5155815;27;20074;-63
2022/08/27 11:52:22;;;;;;;5.32;1.20;;;28.80;79.90;;;;;;5137904;27;20507;-64
2022/08/27 11:54:51;;;;;;;5.85;1.10;;;29.90;78.40;;;;;;5137293;27;20055;-64
2022/08/27 11:57:26;;;;;;;;;;;30.70;76.50;;;;;;5156450;27;20115;-64
2022/08/27 11:59:53;;;;;;;3.13;0.98;;;31.20;75.50;;;;;;5138150;27;20295;-65
2022/08/27 12:02:24;;;;;;;4.97;1.00;;;32.00;76.70;;;;;;5134923;27;20050;-64
2022/08/27 12:04:54;;;;;;;5.82;1.08;;;32.50;75.00;;;;;;5155753;27;20400;-65
2022/08/27 12:07:36;;;;;;;;;;;32.90;73.00;;;;;;5137898;27;20058;-65
2022/08/27 12:10:29;;;;;;;4.90;1.10;;;33.10;71.20;;;;;;5155928;27;19923;-64
2022/08/27 12:13:04;;;;;;;5.13;1.30;;;33.70;69.30;;;;;;5148955;27;20462;-64
2022/08/27 12:15:47;;;;;;;3.95;0.98;;;33.20;70.30;;;;;;5155935;27;20103;-64
2022/08/27 12:18:44;;;;;;;4.07;1.15;;;32.20;68.60;;;;;;5134448;27;20063;-65
2022/08/27 12:21:24;;;;;;;8.65;1.67;;;31.30;70.30;;;;;;5135364;27;20111;-63
2022/08/27 12:24:23;;;;;;;3.70;1.00;;;31.30;69.80;;;;;;5137075;27;20137;-65
2022/08/27 12:26:55;;;;;;;;;;;31.80;70.20;;;;;;5129283;27;20454;-65
2022/08/27 12:29:28;;;;;;;8.85;1.58;;;32.10;67.60;;;;;;5155083;27;19919;-64
2022/08/27 12:32:03;;;;;;;3.25;0.90;;;32.00;68.40;;;;;;5154425;27;20397;-65
2022/08/27 12:34:32;;;;;;;3.20;0.73;;;31.80;67.00;;;;;;5137179;27;20053;-65
2022/08/27 12:37:01;;;;;;;5.35;1.00;;;31.90;68.40;;;;;;5136781;27;20454;-65
2022/08/27 12:39:32;;;;;;;;;;;31.30;68.70;;;;;;5137296;27;20454;-65
2022/08/27 12:41:59;;;;;;;2.95;1.08;;;30.70;68.60;;;;;;5155813;27;20373;-65
2022/08/27 12:44:28;;;;;;;3.13;0.95;;;31.30;69.80;;;;;;5125351;27;20082;-64
2022/08/27 12:47:00;;;;;;;;;;;31.70;69.00;;;;;;5153936;27;20555;-64
2022/08/27 12:49:35;;;;;;;2.95;1.17;;;32.10;67.20;;;;;;5148896;27;20374;-64
2022/08/27 12:52:14;;;;;;;3.42;1.00;;;33.10;67.30;;;;;;5153626;27;20042;-65
2022/08/27 12:55:01;;;;;;;5.47;1.20;;;31.80;66.80;;;;;;5136336;27;20115;-65
2022/08/27 12:57:36;;;;;;;5.68;1.23;;;30.50;68.10;;;;;;5154993;27;20451;-64
2022/08/27 13:00:13;;;;;;;4.47;1.55;;;29.40;69.70;;;;;;5155598;27;20107;-65
2022/08/27 13:02:58;;;;;;;3.65;1.00;;;28.70;71.10;;;;;;5156265;27;20071;-64
2022/08/27 13:05:25;;;;;;;3.75;1.48;;;28.90;72.80;;;;;;5155424;27;20219;-64
2022/08/27 13:07:53;;;;;;;4.68;1.10;;;29.80;71.90;;;;;;5152844;27;20039;-64
2022/08/27 13:10:26;;;;;;;5.20;1.17;;;30.70;70.40;;;;;;5154877;27;20050;-64